Ashland, Nebraska
Current Conditions -  °F | °C
As of 6:15 AM on Thursday 29 Jan 2015 (Local Time) from KMLE Reporting Station
Overcast Overcast  
Wind Chill: 29°   Ceiling: 3100
Heat Index: 38°   Visibility: 10mi
Dew Point: 28°   Wind: 16mph
Humidity: 67%   Direction: 320°NW
Pressure: 30.21"   Gusts: 28mph
Location:  41.04°N, 96.37°W
Report Text: KMLE 291215Z AUTO 32014G24KT 10SM OVC031 03/M02 A3021 RMK AO2 T00321024
Loading
Personal Weather Stations






























Interactive Weather Map New forecast layout! Learn more

10-Day Weather Forecast

Advertisements
Track Severe Weather on mobile